Lansing, New York
Current Conditions -  °F | °C
As of 9:56 PM on Saturday 25 Oct 2014 (Local Time) from KITH Reporting Station
Broken Clouds Broken Clouds  
Wind Chill: 55°   Ceiling: 6000
Heat Index: 55°   Visibility: 10mi
Dew Point: 46°   Wind: 8mph
Humidity: 72%   Direction: 280°W
Pressure: 29.62"   Gusts: NA
Location:  42.48°N, 76.48°W
Report Text: KITH 260156Z 28007KT 10SM BKN060 13/08 A2962 RMK AO2 T01270077 SLP032
Loading
Personal Weather Stations






























Interactive Weather Map New forecast layout! Learn more

10-Day Weather Forecast

Advertisements
Track Severe Weather on mobile